Selviria, Brazil
Current Conditions -  °F | °C
As of 5:00 PM on Monday 24 Nov 2014 (Local Time) from SBDN Reporting Station
Rain Showers Rain Showers  
Wind Chill: 84°   Ceiling: Unl
Heat Index: 88°   Visibility: 6mi
Dew Point: 70°   Wind: 0mph
Humidity: 62%   Direction: NA
Pressure: 29.83"   Gusts: NA
Location:  20.37°S, 51.42°W
Report Text: SBDN 242000Z 00000KT 9999 VCSH SCT040 FEW055TCU SCT100 29/21 Q1010
Loading
Personal Weather Stations






























Interactive Weather Map New forecast layout! Learn more

10-Day Weather Forecast

Advertisements
Track Severe Weather on mobile